Itatiaia, Brazil
Current Conditions -  °F | °C
As of 6:00 AM on Tuesday 21 Oct 2014 (Local Time) from SBGW Reporting Station
Broken Clouds Broken Clouds  
Wind Chill: 66°   Ceiling: 3000
Heat Index: 66°   Visibility: 4mi
Dew Point: 63°   Wind: 2mph
Humidity: 88%   Direction: 260°W
Pressure: 30.09"   Gusts: NA
Location:  22.5°S, 44.57°W
Report Text: SBGW 210800Z 26002KT 7000 BKN030 19/17 Q1019
Loading
Personal Weather Stations






























Interactive Weather Map
Tropical Storm Tracking
New forecast layout! Learn more

10-Day Weather Forecast

Advertisements
Track Severe Weather on mobile